Time;durP1;ratioP1;P1;durP2;ratioP2;P2;SDS_P1;SDS_P2;PMS_P1;PMS_P2;Temp;Humidity;BMP_temperature;BMP_pressure;BME280_temperature;BME280_humidity;BME280_pressure;Samples;Min_cycle;Max_cycle;Signal;HPM_P1;HPM_P2
2022/10/03 00:00:40;;;;;;;13.23;5.63;;;;;;;7.90;100.00;102404.94;5248982;28;20032;-69
2022/10/03 00:03:39;;;;;;;14.30;5.57;;;;;;;7.87;100.00;102407.75;5248772;28;20050;-69
2022/10/03 00:06:26;;;;;;;12.15;5.20;;;;;;;7.91;100.00;102410.19;5246586;28;20112;-69
2022/10/03 00:09:26;;;;;;;14.60;5.93;;;;;;;7.90;100.00;102397.84;5250663;28;20107;-69
2022/10/03 00:12:16;;;;;;;18.35;7.30;;;;;;;7.86;100.00;102396.22;5253730;28;20024;-69
2022/10/03 00:15:04;;;;;;;10.55;5.88;;;;;;;7.80;100.00;102401.78;5263704;28;20547;-69
2022/10/03 00:17:50;;;;;;;16.63;7.50;;;;;;;7.71;100.00;102400.38;5260236;28;20488;-69
2022/10/03 00:20:46;;;;;;;14.75;6.60;;;;;;;7.70;100.00;102395.13;5255763;28;20028;-69
2022/10/03 00:23:53;;;;;;;17.80;6.30;;;;;;;7.69;100.00;102401.34;5257644;28;20090;-69
2022/10/03 00:26:44;;;;;;;14.88;6.03;;;;;;;7.61;100.00;102410.50;5249534;28;20513;-69
2022/10/03 00:29:58;;;;;;;16.55;6.00;;;;;;;7.57;100.00;102411.53;5262286;28;20030;-69
2022/10/03 00:32:42;;;;;;;13.32;6.13;;;;;;;7.51;100.00;102409.13;5258998;28;20642;-69
2022/10/03 00:35:29;;;;;;;16.38;5.97;;;;;;;7.51;100.00;102418.88;5248848;28;20528;-69
2022/10/03 00:38:16;;;;;;;15.00;5.80;;;;;;;7.48;100.00;102419.88;5251050;28;20494;-69
2022/10/03 00:41:02;;;;;;;16.20;7.22;;;;;;;7.44;100.00;102428.84;5255916;28;20032;-69
2022/10/03 00:43:59;;;;;;;16.45;6.95;;;;;;;7.43;100.00;102427.13;5251437;28;20036;-69
2022/10/03 00:46:46;;;;;;;16.60;7.45;;;;;;;7.42;100.00;102430.69;5256092;28;20855;-69
2022/10/03 00:49:30;;;;;;;15.75;6.50;;;;;;;7.46;100.00;102429.69;5252455;28;20029;-69
2022/10/03 00:52:32;;;;;;;14.18;6.68;;;;;;;7.52;100.00;102436.56;5252413;28;20049;-69
2022/10/03 00:55:06;;;;;;;14.65;5.60;;;;;;;7.50;100.00;102435.72;5255359;28;20028;-69
2022/10/03 00:58:13;;;;;;;15.27;6.22;;;;;;;7.53;100.00;102440.94;5258079;28;20097;-69
2022/10/03 01:00:50;;;;;;;17.80;6.78;;;;;;;7.47;100.00;102444.69;5255112;28;20465;-70
2022/10/03 01:03:50;;;;;;;15.02;7.00;;;;;;;7.41;100.00;102437.81;5251842;28;20029;-69
2022/10/03 01:06:52;;;;;;;19.20;6.93;;;;;;;7.35;100.00;102440.69;5256598;28;20029;-69
2022/10/03 01:09:32;;;;;;;13.50;5.93;;;;;;;7.37;100.00;102445.97;5249954;28;20435;-70
2022/10/03 01:12:32;;;;;;;10.38;5.68;;;;;;;7.31;100.00;102451.50;5258425;28;20450;-69
2022/10/03 01:15:48;;;;;;;12.98;6.20;;;;;;;7.43;100.00;102459.00;5256758;28;20036;-69
2022/10/03 01:18:36;;;;;;;15.23;6.47;;;;;;;7.30;100.00;102457.72;5256812;28;20025;-69
2022/10/03 01:21:26;;;;;;;16.65;6.90;;;;;;;7.32;100.00;102462.03;5253772;28;20024;-70
2022/10/03 01:24:16;;;;;;;17.83;6.40;;;;;;;7.18;100.00;102464.34;5255477;28;20529;-69
2022/10/03 01:27:02;;;;;;;15.73;6.20;;;;;;;7.22;100.00;102465.97;5256210;28;20028;-69
2022/10/03 01:30:21;;;;;;;12.68;6.07;;;;;;;7.29;100.00;102462.19;5257670;28;20616;-69
2022/10/03 01:33:08;;;;;;;11.93;6.22;;;;;;;7.20;100.00;102467.81;5252636;28;20108;-70
2022/10/03 01:36:01;;;;;;;11.63;6.07;;;;;;;7.23;100.00;102467.72;5252121;28;20051;-69
2022/10/03 01:38:41;;;;;;;16.33;6.85;;;;;;;7.18;100.00;102467.88;5252084;28;20035;-69
2022/10/03 01:41:36;;;;;;;15.70;6.78;;;;;;;7.20;100.00;102470.47;5256041;28;20357;-69
2022/10/03 01:44:29;;;;;;;13.68;6.78;;;;;;;7.22;100.00;102464.16;5237458;28;20039;-69
2022/10/03 01:47:50;;;;;;;18.08;6.75;;;;;;;7.26;100.00;102467.59;5253249;28;20147;-69
2022/10/03 01:50:33;;;;;;;18.45;7.75;;;;;;;7.16;100.00;102467.06;5251041;28;20046;-69
2022/10/03 01:53:18;;;;;;;11.93;6.60;;;;;;;7.21;100.00;102469.53;5250583;28;20079;-69
2022/10/03 01:56:14;;;;;;;16.70;8.35;;;;;;;7.17;100.00;102473.22;5250096;28;20029;-69
2022/10/03 01:59:01;;;;;;;15.63;6.15;;;;;;;7.10;100.00;102463.78;5255439;28;20028;-69
2022/10/03 02:01:35;;;;;;;12.98;6.38;;;;;;;7.02;100.00;102464.91;5253241;28;20135;-69
2022/10/03 02:04:31;;;;;;;15.88;7.05;;;;;;;7.02;100.00;102464.03;5264883;28;20052;-69
2022/10/03 02:07:09;;;;;;;14.38;6.57;;;;;;;7.00;100.00;102468.50;5252600;28;20028;-69
2022/10/03 02:10:02;;;;;;;15.13;6.53;;;;;;;7.05;100.00;102466.56;5264730;28;20024;-69
2022/10/03 02:12:47;;;;;;;12.98;6.50;;;;;;;7.06;100.00;102468.31;5260055;28;20041;-69
2022/10/03 02:15:26;;;;;;;16.33;7.28;;;;;;;7.07;100.00;102467.38;5258258;28;20047;-69
2022/10/03 02:18:37;;;;;;;13.88;6.75;;;;;;;7.08;100.00;102479.75;5267712;28;20039;-69
2022/10/03 02:21:16;;;;;;;14.88;7.07;;;;;;;7.06;100.00;102474.47;5174195;28;20037;-69
2022/10/03 02:24:01;;;;;;;14.65;6.45;;;;;;;6.95;100.00;102473.13;5244301;28;20614;-69
2022/10/03 02:26:51;;;;;;;;;;;;;;;7.02;100.00;102477.31;5247503;28;20025;-70
2022/10/03 02:29:47;;;;;;;15.75;6.85;;;;;;;6.93;100.00;102473.19;5263660;28;20338;-69
2022/10/03 02:32:38;;;;;;;19.17;7.80;;;;;;;6.91;100.00;102471.50;5251751;28;20429;-69
2022/10/03 02:35:42;;;;;;;16.80;8.32;;;;;;;6.91;100.00;102474.16;5261262;28;20162;-69
2022/10/03 02:38:16;;;;;;;15.45;7.18;;;;;;;6.85;100.00;102478.75;5263244;28;20021;-69
2022/10/03 02:41:12;;;;;;;14.00;7.47;;;;;;;6.87;100.00;102476.91;5254193;28;20213;-69
2022/10/03 02:44:02;;;;;;;15.27;7.55;;;;;;;6.82;100.00;102476.19;5257911;28;20032;-69
2022/10/03 02:46:57;;;;;;;17.73;8.05;;;;;;;6.83;100.00;102475.28;5256598;28;20055;-69
2022/10/03 02:50:02;;;;;;;17.48;8.45;;;;;;;6.81;100.00;102470.97;5257203;28;20501;-69
2022/10/03 02:53:22;;;;;;;20.10;8.25;;;;;;;6.76;100.00;102475.56;5254641;28;20103;-69
2022/10/03 02:56:14;;;;;;;15.80;7.50;;;;;;;6.72;100.00;102463.31;5252667;28;20055;-69
2022/10/03 02:59:01;;;;;;;17.83;7.00;;;;;;;6.67;100.00;102468.75;5255875;28;20029;-69
2022/10/03 03:01:51;;;;;;;13.93;7.22;;;;;;;6.71;100.00;102472.19;5254631;28;20039;-69
2022/10/03 03:05:07;;;;;;;12.23;7.38;;;;;;;6.67;100.00;102472.31;5266931;28;20038;-69
2022/10/03 03:08:11;;;;;;;17.55;7.30;;;;;;;6.65;100.00;102473.25;5256987;28;20034;-69
2022/10/03 03:11:07;;;;;;;17.73;7.90;;;;;;;6.63;100.00;102468.00;5251835;28;20157;-70
2022/10/03 03:14:14;;;;;;;18.98;8.10;;;;;;;6.58;100.00;102474.41;5249155;28;20044;-69
2022/10/03 03:16:48;;;;;;;19.45;8.70;;;;;;;6.66;100.00;102473.22;5207183;28;20040;-69
2022/10/03 03:19:28;;;;;;;;;;;;;;;6.70;100.00;102476.63;5251824;28;20118;-69
2022/10/03 03:22:07;;;;;;;15.20;8.95;;;;;;;6.61;100.00;102471.63;5245636;28;19917;-69
2022/10/03 03:25:02;;;;;;;15.75;8.32;;;;;;;6.64;100.00;102474.19;5249025;28;21597;-69
2022/10/03 03:28:12;;;;;;;19.08;9.00;;;;;;;6.60;100.00;102484.03;5254240;28;20039;-70
2022/10/03 03:31:09;;;;;;;13.27;7.15;;;;;;;6.54;100.00;102476.28;5238787;28;20090;-69
2022/10/03 03:34:01;;;;;;;15.52;7.55;;;;;;;6.52;100.00;102480.78;5252343;28;20116;-69
2022/10/03 03:37:00;;;;;;;15.43;8.65;;;;;;;6.52;100.00;102486.09;5252453;28;20028;-69
2022/10/03 03:39:57;;;;;;;14.75;8.70;;;;;;;6.49;100.00;102483.50;5251622;28;20083;-69
2022/10/03 03:43:08;;;;;;;14.60;8.38;;;;;;;6.49;100.00;102488.81;5256474;28;20036;-69
2022/10/03 03:46:03;;;;;;;18.27;8.48;;;;;;;6.50;100.00;102487.03;5253227;28;20541;-69
2022/10/03 03:49:15;;;;;;;15.35;7.95;;;;;;;6.48;100.00;102489.72;5245666;28;20111;-69
2022/10/03 03:52:08;;;;;;;17.63;8.18;;;;;;;6.44;100.00;102493.41;5255378;28;20198;-69
2022/10/03 03:54:49;;;;;;;14.02;8.48;;;;;;;6.43;100.00;102487.25;5254959;28;20028;-69
2022/10/03 03:57:38;;;;;;;17.92;8.20;;;;;;;6.42;100.00;102485.53;5255160;28;20115;-69
2022/10/03 04:00:16;;;;;;;17.65;8.88;;;;;;;6.40;100.00;102489.13;5254229;28;20047;-69
2022/10/03 04:03:23;;;;;;;13.65;7.75;;;;;;;6.41;100.00;102490.88;5254366;28;20043;-69
2022/10/03 04:06:04;;;;;;;21.98;8.73;;;;;;;6.45;100.00;102490.69;5262844;28;20059;-69
2022/10/03 04:08:59;;;;;;;16.90;8.23;;;;;;;6.40;100.00;102489.97;5254818;28;20032;-69
2022/10/03 04:11:56;;;;;;;14.57;7.97;;;;;;;6.43;100.00;102495.19;5259096;28;20068;-69
2022/10/03 04:14:52;;;;;;;16.15;8.50;;;;;;;6.41;100.00;102498.81;5257499;28;20056;-69
2022/10/03 04:20:32;;;;;;;16.40;7.75;;;;;;;6.35;100.00;102494.56;5254359;28;20481;-69
2022/10/03 04:23:28;;;;;;;15.85;8.07;;;;;;;6.37;100.00;102503.34;5254632;28;20049;-69
2022/10/03 04:26:09;;;;;;;17.15;7.97;;;;;;;6.32;100.00;102504.41;5254765;28;20044;-69
2022/10/03 04:29:05;;;;;;;15.18;8.32;;;;;;;6.34;100.00;102497.28;5255793;28;20651;-69
2022/10/03 04:32:00;;;;;;;14.07;8.00;;;;;;;6.33;100.00;102504.38;5254639;28;20063;-69
2022/10/03 04:34:49;;;;;;;15.20;7.65;;;;;;;6.33;100.00;102495.53;5254924;28;20060;-69
2022/10/03 04:37:27;;;;;;;17.60;8.60;;;;;;;6.32;100.00;102504.41;5252954;28;20025;-69
2022/10/03 04:40:32;;;;;;;15.27;7.45;;;;;;;6.32;100.00;102502.63;5256339;28;20120;-69
2022/10/03 04:43:12;;;;;;;19.05;8.63;;;;;;;6.28;100.00;102499.19;5256914;28;20043;-69
2022/10/03 04:45:49;;;;;;;15.98;8.45;;;;;;;6.23;100.00;102492.31;5254257;28;20055;-69
2022/10/03 04:48:44;;;;;;;14.60;7.50;;;;;;;6.27;100.00;102493.94;5252660;28;20115;-69
2022/10/03 04:51:37;;;;;;;17.52;7.93;;;;;;;6.27;100.00;102496.59;5257540;28;20028;-67
2022/10/03 04:54:37;;;;;;;16.85;7.93;;;;;;;6.29;100.00;102502.72;5251728;28;20087;-69
2022/10/03 04:57:18;;;;;;;15.50;8.25;;;;;;;6.29;100.00;102500.09;5214994;28;20049;-69
2022/10/03 04:59:56;;;;;;;14.50;7.82;;;;;;;6.28;100.00;102495.69;5253254;28;20379;-69
2022/10/03 05:02:44;;;;;;;15.30;7.97;;;;;;;6.33;100.00;102492.88;5264364;28;20162;-69
2022/10/03 05:05:31;;;;;;;11.98;7.75;;;;;;;6.31;100.00;102500.00;5258444;28;20094;-69
2022/10/03 05:08:17;;;;;;;14.40;8.18;;;;;;;6.34;100.00;102502.56;5244963;28;20063;-69
2022/10/03 05:11:06;;;;;;;16.17;7.25;;;;;;;6.34;100.00;102508.75;5253079;28;20044;-69
2022/10/03 05:14:01;;;;;;;13.98;7.22;;;;;;;6.32;100.00;102513.22;5237221;28;20029;-69
2022/10/03 05:17:20;;;;;;;14.25;7.45;;;;;;;6.37;100.00;102513.09;5252888;28;20028;-69
2022/10/03 05:20:10;;;;;;;16.60;7.35;;;;;;;6.31;100.00;102514.16;5245134;28;20060;-69
2022/10/03 05:23:30;;;;;;;15.68;7.88;;;;;;;6.35;100.00;102520.19;5257777;28;20526;-69
2022/10/03 05:26:27;;;;;;;13.70;7.50;;;;;;;6.31;100.00;102518.56;5251548;28;20048;-69
2022/10/03 05:29:05;;;;;;;17.63;8.88;;;;;;;6.24;100.00;102524.06;5259629;28;20337;-69
2022/10/03 05:31:47;;;;;;;21.60;9.82;;;;;;;6.28;100.00;102523.06;5263008;28;20471;-69
2022/10/03 05:34:35;;;;;;;16.70;9.00;;;;;;;6.26;100.00;102526.69;5263547;28;20367;-69
2022/10/03 05:37:28;;;;;;;18.50;9.60;;;;;;;6.25;100.00;102535.53;5256452;28;20029;-69
2022/10/03 05:40:18;;;;;;;14.48;8.27;;;;;;;6.24;100.00;102537.31;5258901;28;20741;-69
2022/10/03 05:42:52;;;;;;;17.67;8.07;;;;;;;6.20;100.00;102534.81;5260162;28;20174;-68
2022/10/03 05:45:51;;;;;;;12.35;7.22;;;;;;;6.24;100.00;102539.97;5260035;28;20519;-69
2022/10/03 05:48:42;;;;;;;16.08;8.20;;;;;;;6.23;100.00;102543.56;5253705;28;20028;-69
2022/10/03 05:51:43;;;;;;;12.35;8.10;;;;;;;6.31;100.00;102539.78;5267274;28;20052;-69
2022/10/03 05:55:02;;;;;;;15.18;7.72;;;;;;;6.34;100.00;102537.91;5268994;28;20044;-69
2022/10/03 05:58:16;;;;;;;18.27;8.00;;;;;;;6.35;100.00;102541.41;5181802;28;20097;-70
2022/10/03 06:01:05;;;;;;;22.67;10.70;;;;;;;6.36;100.00;102544.00;5240829;28;20047;-69
2022/10/03 06:03:42;;;;;;;15.00;9.52;;;;;;;6.36;100.00;102544.00;5259473;28;20032;-69
2022/10/03 06:06:25;;;;;;;22.92;10.02;;;;;;;6.40;100.00;102558.91;5265342;28;20043;-69
2022/10/03 06:09:23;;;;;;;16.08;9.07;;;;;;;6.43;100.00;102545.56;5264242;28;20063;-69
2022/10/03 06:12:39;;;;;;;16.73;9.48;;;;;;;6.50;100.00;102558.63;5258595;28;20070;-69
2022/10/03 06:15:16;;;;;;;;;;;;;;;6.54;100.00;102552.28;5261625;28;20033;-70
2022/10/03 06:18:12;;;;;;;16.90;9.82;;;;;;;6.56;100.00;102551.34;5256331;28;20358;-69
2022/10/03 06:21:23;;;;;;;16.30;11.20;;;;;;;6.61;100.00;102556.50;5255927;28;20044;-69
2022/10/03 06:24:31;;;;;;;20.58;11.15;;;;;;;6.66;100.00;102559.88;5264201;28;20627;-69
2022/10/03 06:27:33;;;;;;;14.82;8.85;;;;;;;6.69;100.00;102562.41;5249602;28;20036;-69
2022/10/03 06:30:30;;;;;;;21.00;9.60;;;;;;;6.77;100.00;102560.41;5261115;28;20035;-70
2022/10/03 06:33:11;;;;;;;17.30;8.98;;;;;;;6.76;100.00;102563.09;5260250;28;20040;-70
2022/10/03 06:36:19;;;;;;;16.27;9.02;;;;;;;6.77;100.00;102563.06;5264532;28;20029;-70
2022/10/03 06:39:14;;;;;;;15.50;8.23;;;;;;;6.79;100.00;102560.34;5262767;28;20032;-70
2022/10/03 06:41:58;;;;;;;17.13;9.10;;;;;;;6.80;100.00;102564.72;5260305;28;20025;-70
2022/10/03 06:45:14;;;;;;;14.98;8.85;;;;;;;6.81;100.00;102566.47;5254673;28;20287;-70
2022/10/03 06:48:32;;;;;;;15.52;9.45;;;;;;;6.83;100.00;102565.50;5259627;28;20047;-69
2022/10/03 06:51:31;;;;;;;14.70;8.77;;;;;;;6.85;100.00;102557.50;5260311;28;20024;-69
2022/10/03 06:54:34;;;;;;;19.80;10.00;;;;;;;6.98;100.00;102564.13;5262840;28;20398;-69
2022/10/03 06:57:05;;;;;;;19.25;11.00;;;;;;;7.02;100.00;102564.88;5259893;28;20047;-70
2022/10/03 07:00:03;;;;;;;17.27;10.70;;;;;;;6.99;100.00;102570.28;5251573;28;20036;-70
2022/10/03 07:03:18;;;;;;;17.17;10.30;;;;;;;7.02;100.00;102571.06;5254186;28;20043;-70
2022/10/03 07:06:26;;;;;;;18.07;10.23;;;;;;;7.05;100.00;102576.25;5252222;28;20059;-70
2022/10/03 07:09:37;;;;;;;16.38;9.93;;;;;;;7.07;100.00;102577.06;5250757;28;20029;-70
2022/10/03 07:12:32;;;;;;;19.15;10.25;;;;;;;7.16;100.00;102580.34;5254065;28;20025;-70
2022/10/03 07:15:13;;;;;;;18.60;10.52;;;;;;;7.15;100.00;102582.13;5256665;28;20028;-69
2022/10/03 07:18:11;;;;;;;17.77;10.48;;;;;;;7.18;100.00;102566.09;5258545;28;20288;-68
2022/10/03 07:21:19;;;;;;;17.77;11.15;;;;;;;7.31;100.00;102574.50;5238107;28;20048;-68
2022/10/03 07:24:13;;;;;;;20.80;11.75;;;;;;;7.36;100.00;102583.16;5254346;28;20107;-70
2022/10/03 07:27:18;;;;;;;20.20;11.60;;;;;;;7.39;100.00;102585.72;5267344;28;20029;-70
2022/10/03 07:30:12;;;;;;;19.52;11.35;;;;;;;7.45;100.00;102589.94;5254926;28;20044;-70
2022/10/03 07:33:03;;;;;;;21.65;12.25;;;;;;;7.50;100.00;102587.09;5254679;28;20120;-70
2022/10/03 07:38:57;;;;;;;19.95;12.48;;;;;;;7.75;100.00;102595.09;5257436;28;20029;-69
2022/10/03 07:41:44;;;;;;;20.77;13.15;;;;;;;7.85;100.00;102599.13;5250938;28;20454;-69
2022/10/03 07:44:43;;;;;;;21.70;13.18;;;;;;;7.79;100.00;102600.22;5251294;28;20147;-70
2022/10/03 07:47:32;;;;;;;20.58;12.98;;;;;;;7.91;100.00;102601.56;5253842;28;20107;-69
2022/10/03 07:50:09;;;;;;;21.38;12.75;;;;;;;8.00;100.00;102603.88;5259767;28;20486;-70
2022/10/03 07:52:52;;;;;;;20.67;12.65;;;;;;;7.99;100.00;102607.44;5260273;28;20041;-70
2022/10/03 07:56:01;;;;;;;22.40;13.15;;;;;;;8.05;100.00;102609.91;5262968;28;20171;-70
2022/10/03 07:58:41;;;;;;;20.20;12.80;;;;;;;8.19;100.00;102611.16;5261679;28;20027;-69
2022/10/03 08:01:41;;;;;;;27.63;13.55;;;;;;;8.30;100.00;102616.06;5254550;28;20039;-69
2022/10/03 08:04:31;;;;;;;24.75;13.05;;;;;;;8.46;100.00;102619.91;5259878;28;20077;-69
2022/10/03 08:07:21;;;;;;;20.52;13.23;;;;;;;8.44;100.00;102617.28;5256362;28;20047;-69
2022/10/03 08:10:15;;;;;;;21.17;13.10;;;;;;;8.72;100.00;102618.84;5253993;28;20378;-69
2022/10/03 08:13:24;;;;;;;23.38;14.35;;;;;;;8.70;100.00;102619.84;5247912;28;20398;-69
2022/10/03 08:16:15;;;;;;;29.85;15.05;;;;;;;8.91;100.00;102612.78;5265028;28;20171;-69
2022/10/03 08:19:06;;;;;;;27.58;14.73;;;;;;;8.93;100.00;102608.28;5253427;28;20370;-70
2022/10/03 08:22:25;;;;;;;22.30;14.48;;;;;;;9.04;100.00;102611.34;5255243;28;20028;-70
2022/10/03 08:25:25;;;;;;;26.67;14.93;;;;;;;9.13;100.00;102610.13;5203956;28;20572;-70
2022/10/03 08:28:20;;;;;;;24.13;13.93;;;;;;;9.36;100.00;102609.13;5206077;28;20358;-69
2022/10/03 08:31:29;;;;;;;23.60;15.73;;;;;;;9.24;100.00;102605.19;5259791;28;20059;-70
2022/10/03 08:34:06;;;;;;;25.60;15.77;;;;;;;9.45;100.00;102610.53;5261591;28;20036;-70
2022/10/03 08:37:13;;;;;;;23.27;14.55;;;;;;;9.41;100.00;102613.34;5260043;28;20039;-70
2022/10/03 08:39:56;;;;;;;25.65;14.68;;;;;;;9.55;100.00;102612.72;5249500;28;20032;-70
2022/10/03 08:43:04;;;;;;;21.23;13.57;;;;;;;9.60;100.00;102618.69;5266501;28;20032;-70
2022/10/03 08:46:02;;;;;;;20.50;13.52;;;;;;;9.81;100.00;102614.22;5261855;28;20114;-70
2022/10/03 08:48:59;;;;;;;22.23;12.43;;;;;;;9.93;100.00;102618.16;5259743;28;20025;-70
2022/10/03 08:52:05;;;;;;;28.15;13.25;;;;;;;10.12;100.00;102619.97;5262195;28;20029;-70
2022/10/03 08:54:53;;;;;;;21.23;12.38;;;;;;;10.31;100.00;102620.88;5263261;28;20032;-69
2022/10/03 08:57:45;;;;;;;21.30;12.98;;;;;;;10.42;100.00;102628.38;5270058;28;20037;-68
2022/10/03 09:00:33;;;;;;;22.75;11.75;;;;;;;10.47;100.00;102622.81;5267421;28;20036;-69
2022/10/03 09:03:30;;;;;;;19.77;10.32;;;;;;;10.60;100.00;102623.97;5266186;28;20036;-70
2022/10/03 09:06:38;;;;;;;18.40;9.18;;;;;;;10.68;100.00;102624.47;5263315;28;20695;-69
2022/10/03 09:09:30;;;;;;;19.30;8.38;;;;;;;10.84;100.00;102624.59;5270474;28;20036;-69
2022/10/03 09:12:04;;;;;;;16.70;8.88;;;;;;;10.96;100.00;102625.78;5270177;28;20036;-69
2022/10/03 09:15:00;;;;;;;15.63;7.97;;;;;;;11.23;100.00;102623.53;5259468;28;20060;-69
2022/10/03 09:17:43;;;;;;;15.40;7.43;;;;;;;11.46;100.00;102627.69;5268141;28;20078;-70
2022/10/03 09:20:33;;;;;;;17.25;8.00;;;;;;;11.55;100.00;102621.03;5261102;28;20119;-70
2022/10/03 09:23:24;;;;;;;11.65;6.13;;;;;;;11.76;100.00;102616.34;5266628;28;20035;-70
2022/10/03 09:26:26;;;;;;;15.35;6.28;;;;;;;11.80;100.00;102617.91;5240797;28;20040;-70
2022/10/03 09:29:16;;;;;;;14.60;6.18;;;;;;;11.92;100.00;102622.63;5264770;28;20482;-71
2022/10/03 09:32:24;;;;;;;12.50;5.75;;;;;;;11.89;100.00;102614.78;5263443;28;20024;-70
2022/10/03 09:35:29;;;;;;;13.77;5.55;;;;;;;12.00;100.00;102614.19;5267978;28;20033;-71
2022/10/03 09:38:34;;;;;;;12.60;5.55;;;;;;;12.16;100.00;102607.06;5264860;28;20378;-70
2022/10/03 09:41:51;;;;;;;11.15;4.43;;;;;;;12.25;100.00;102608.34;5263266;28;20054;-70
2022/10/03 09:44:55;;;;;;;8.75;3.35;;;;;;;12.34;100.00;102598.97;5186502;28;20511;-70
2022/10/03 09:47:38;;;;;;;6.38;2.28;;;;;;;12.47;100.00;102602.69;5260625;28;20497;-69
2022/10/03 09:50:40;;;;;;;13.10;3.42;;;;;;;12.56;100.00;102609.34;5273026;28;20044;-70
2022/10/03 09:53:44;;;;;;;11.32;3.22;;;;;;;12.59;100.00;102605.63;5263933;28;20048;-70
2022/10/03 09:56:37;;;;;;;11.63;2.63;;;;;;;12.59;100.00;102595.75;5260103;28;20073;-71
2022/10/03 09:59:39;;;;;;;8.43;2.20;;;;;;;12.71;100.00;102594.19;5265815;28;20081;-71
2022/10/03 10:02:47;;;;;;;10.60;2.72;;;;;;;12.85;100.00;102586.22;5255751;28;20037;-71
2022/10/03 10:05:56;;;;;;;11.40;2.47;;;;;;;12.98;100.00;102596.22;5260469;28;20107;-70
2022/10/03 10:08:39;;;;;;;6.32;2.40;;;;;;;13.01;100.00;102594.22;5261224;28;20474;-72
2022/10/03 10:11:49;;;;;;;10.05;2.75;;;;;;;13.05;100.00;102590.41;5258197;28;20063;-73
2022/10/03 10:15:00;;;;;;;7.68;2.40;;;;;;;13.07;100.00;102587.63;5265948;28;20055;-72
2022/10/03 10:18:00;;;;;;;11.80;2.72;;;;;;;13.16;100.00;102587.09;5266733;28;20112;-70
2022/10/03 10:20:40;;;;;;;6.50;2.40;;;;;;;13.16;100.00;102587.09;5271637;28;20784;-72
2022/10/03 10:23:54;;;;;;;9.18;2.63;;;;;;;13.24;100.00;102592.00;5264284;28;20107;-71
2022/10/03 10:27:03;;;;;;;10.00;2.78;;;;;;;13.24;100.00;102602.72;5203472;28;20056;-72
2022/10/03 10:29:53;;;;;;;9.25;2.20;;;;;;;13.26;100.00;102590.09;5269318;28;20670;-72
2022/10/03 10:32:42;;;;;;;8.13;2.78;;;;;;;13.27;100.00;102586.44;5255210;28;20024;-73
2022/10/03 10:35:19;;;;;;;7.53;1.98;;;;;;;13.30;100.00;102584.47;5265963;28;20028;-72
2022/10/03 10:38:10;;;;;;;7.82;2.20;;;;;;;13.31;100.00;102582.69;5271482;28;20043;-73
2022/10/03 10:40:50;;;;;;;7.20;1.80;;;;;;;13.39;100.00;102576.84;5260995;28;20112;-73
2022/10/03 10:43:52;;;;;;;9.80;2.20;;;;;;;13.41;100.00;102573.13;5262380;28;20032;-73
2022/10/03 10:46:26;;;;;;;9.20;2.30;;;;;;;13.35;100.00;102581.53;5262746;28;20509;-72
2022/10/03 10:49:19;;;;;;;8.93;2.10;;;;;;;13.47;100.00;102582.59;5259504;28;20033;-73
2022/10/03 10:52:21;;;;;;;7.72;1.85;;;;;;;13.43;100.00;102581.06;5260902;28;20044;-73
2022/10/03 10:55:23;;;;;;;6.60;1.75;;;;;;;13.51;100.00;102585.00;5260390;28;20066;-73
2022/10/03 10:58:34;;;;;;;6.93;2.03;;;;;;;13.59;100.00;102591.72;5265730;28;20037;-73
2022/10/03 11:01:08;;;;;;;9.02;1.80;;;;;;;13.61;100.00;102582.59;5264676;28;20032;-73
2022/10/03 11:04:11;;;;;;;7.53;1.77;;;;;;;13.69;100.00;102588.38;5272182;28;20033;-73
2022/10/03 11:07:10;;;;;;;8.45;1.70;;;;;;;13.84;100.00;102591.06;5246758;28;20316;-71
2022/10/03 11:10:00;;;;;;;7.30;1.80;;;;;;;13.76;100.00;102590.69;5262709;28;20028;-71
2022/10/03 11:12:50;;;;;;;7.90;1.67;;;;;;;13.84;100.00;102594.59;5263667;28;20032;-71
2022/10/03 11:15:36;;;;;;;8.00;1.55;;;;;;;13.87;100.00;102589.03;5254180;28;20040;-71
2022/10/03 11:18:41;;;;;;;7.47;2.03;;;;;;;13.96;100.00;102592.09;5269998;28;20479;-72
2022/10/03 11:21:37;;;;;;;5.90;1.70;;;;;;;14.04;100.00;102579.09;5259518;28;21891;-72
2022/10/03 11:24:49;;;;;;;7.55;1.70;;;;;;;14.25;100.00;102576.84;5259133;28;20461;-72
2022/10/03 11:27:42;;;;;;;8.45;1.77;;;;;;;14.37;100.00;102572.50;5236260;28;20033;-72
2022/10/03 11:30:59;;;;;;;6.55;1.67;;;;;;;14.42;100.00;102565.88;5266221;28;20041;-72
2022/10/03 11:34:10;;;;;;;6.63;1.27;;;;;;;14.38;100.00;102569.72;5206831;28;20030;-72
2022/10/03 11:37:02;;;;;;;7.68;1.25;;;;;;;14.37;100.00;102569.81;5263626;28;20083;-72
2022/10/03 11:39:43;;;;;;;5.40;1.20;;;;;;;14.35;100.00;102571.75;5264866;28;20043;-72
2022/10/03 11:42:20;;;;;;;8.00;1.38;;;;;;;14.42;100.00;102573.94;5256061;28;20040;-73
2022/10/03 11:44:58;;;;;;;8.40;1.80;;;;;;;14.45;100.00;102572.84;5271680;28;20035;-71
2022/10/03 11:47:55;;;;;;;4.82;1.10;;;;;;;14.45;100.00;102572.84;5264881;28;20455;-72
2022/10/03 11:50:44;;;;;;;7.05;1.35;;;;;;;14.59;100.00;102569.28;5256048;28;20067;-72
2022/10/03 11:53:36;;;;;;;6.70;1.30;;;;;;;14.53;100.00;102570.53;5263045;28;20499;-73
2022/10/03 11:56:46;;;;;;;6.57;1.25;;;;;;;14.59;100.00;102574.66;5260156;28;20494;-73
2022/10/03 11:59:36;;;;;;;8.40;2.50;;;;;;;14.76;100.00;102570.88;5260607;28;20095;-72
2022/10/03 12:02:27;;;;;;;7.22;1.55;;;;;;;14.77;100.00;102567.22;5263477;28;20031;-72
2022/10/03 12:05:11;;;;;;;8.65;1.40;;;;;;;14.81;100.00;102566.06;5261685;28;20041;-73
2022/10/03 12:11:20;;;;;;;8.00;1.67;;;;;;;14.74;100.00;102565.59;5260415;28;20414;-73
2022/10/03 12:14:22;;;;;;;9.27;1.90;;;;;;;14.83;100.00;102573.03;5271389;28;20025;-73
2022/10/03 12:17:04;;;;;;;6.70;1.40;;;;;;;15.03;100.00;102563.66;5263238;28;20048;-73
2022/10/03 12:19:55;;;;;;;6.55;1.35;;;;;;;15.09;100.00;102560.53;5269375;28;20122;-73
2022/10/03 12:22:41;;;;;;;8.20;1.25;;;;;;;15.26;100.00;102555.81;5264129;28;20028;-73
2022/10/03 12:25:23;;;;;;;6.45;1.38;;;;;;;15.31;100.00;102559.03;5261344;28;20024;-73
2022/10/03 12:28:16;;;;;;;6.15;1.60;;;;;;;15.42;100.00;102551.09;5269403;28;20048;-73
2022/10/03 12:31:03;;;;;;;7.40;1.40;;;;;;;15.45;100.00;102563.47;5268450;28;20086;-74
2022/10/03 12:33:52;;;;;;;5.28;1.35;;;;;;;15.47;100.00;102554.34;5272975;28;20040;-73
2022/10/03 12:36:39;;;;;;;7.15;1.90;;;;;;;15.36;100.00;102550.66;5271185;28;20032;-74
2022/10/03 12:39:27;;;;;;;4.65;1.40;;;;;;;15.26;100.00;102548.63;5260610;28;21344;-73
2022/10/03 12:42:18;;;;;;;5.60;1.25;;;;;;;15.42;100.00;102551.09;5272809;28;20460;-74
2022/10/03 12:45:15;;;;;;;7.00;1.40;;;;;;;15.29;100.00;102542.16;5242591;28;20043;-74
2022/10/03 12:48:18;;;;;;;7.40;1.33;;;;;;;15.39;100.00;102532.47;5253039;28;20064;-73
2022/10/03 12:51:00;;;;;;;7.88;1.50;;;;;;;15.46;100.00;102533.78;5272185;28;20039;-73
2022/10/03 12:54:00;;;;;;;7.50;1.90;;;;;;;15.47;100.00;102535.50;5264893;28;20056;-73
2022/10/03 12:56:44;;;;;;;7.88;1.60;;;;;;;15.45;100.00;102540.09;5271835;28;20483;-73
2022/10/03 12:59:30;;;;;;;4.07;1.20;;;;;;;15.58;99.23;102536.56;5259560;28;20024;-73
2022/10/03 13:02:29;;;;;;;6.88;1.38;;;;;;;15.52;100.00;102547.75;5246550;28;20033;-74
2022/10/03 13:05:17;;;;;;;6.82;1.33;;;;;;;15.56;100.00;102538.50;5269123;28;20173;-74
2022/10/03 13:08:01;;;;;;;5.75;1.48;;;;;;;15.57;93.78;102537.53;5263773;28;20056;-74
2022/10/03 13:10:46;;;;;;;5.07;1.55;;;;;;;15.66;95.74;102536.88;5273246;28;20024;-73
2022/10/03 13:13:30;;;;;;;6.05;1.58;;;;;;;15.55;100.00;102529.59;5261359;28;20032;-73
2022/10/03 13:16:22;;;;;;;10.05;1.70;;;;;;;15.55;100.00;102531.38;5262931;28;20098;-73
2022/10/03 13:18:59;;;;;;;7.22;1.70;;;;;;;15.57;100.00;102524.06;5262313;28;20383;-73
2022/10/03 13:21:44;;;;;;;6.80;1.70;;;;;;;15.58;100.00;102532.03;5274369;28;20037;-73
2022/10/03 13:24:31;;;;;;;7.00;1.80;;;;;;;15.65;100.00;102525.25;5264717;28;20489;-73
2022/10/03 13:27:23;;;;;;;6.93;1.60;;;;;;;15.62;100.00;102527.31;5260765;28;20067;-73